createdAt,value
2023-02-18T00:06:20.198Z,96508.41
2023-02-18T00:16:26.313Z,96498.95
2023-02-18T00:26:38.164Z,96497.95
2023-02-18T00:37:13.557Z,96510.70
2023-02-18T00:47:27.759Z,96519.01
2023-02-18T00:57:43.044Z,96524.05
2023-02-18T01:08:19.779Z,96523.29
2023-02-18T01:18:32.760Z,96512.77
2023-02-18T01:28:51.556Z,96514.32
2023-02-18T01:39:15.959Z,96510.91
2023-02-18T01:49:50.728Z,96509.06
2023-02-18T02:00:15.282Z,96511.04
2023-02-18T02:11:08.158Z,96550.09
2023-02-18T02:22:04.814Z,96602.89
2023-02-18T02:32:44.516Z,96613.58
2023-02-18T02:42:52.491Z,96610.86
2023-02-18T02:53:16.699Z,96627.13
2023-02-18T03:03:23.952Z,96638.65
2023-02-18T03:14:09.092Z,96608.84
2023-02-18T03:25:07.065Z,96625.76
2023-02-18T03:35:38.269Z,96634.46
2023-02-18T03:46:33.522Z,96645.77
2023-02-18T03:56:59.089Z,96653.25
2023-02-18T04:07:51.230Z,96658.98
2023-02-18T04:18:35.020Z,96655.49
2023-02-18T04:28:47.477Z,96661.95
2023-02-18T04:39:00.156Z,96665.38
2023-02-18T04:49:36.048Z,96668.63
2023-02-18T05:00:12.871Z,96677.61
2023-02-18T05:10:46.541Z,96688.05
2023-02-18T05:21:05.247Z,96690.30
2023-02-18T05:31:12.659Z,96695.04
2023-02-18T05:41:19.935Z,96713.42
2023-02-18T05:52:34.474Z,96729.62
2023-02-18T06:03:40.019Z,96731.44
2023-02-18T06:14:13.753Z,96731.80
2023-02-18T06:24:29.283Z,96737.54
2023-02-18T06:35:15.105Z,96746.09
2023-02-18T06:46:02.727Z,96743.42
2023-02-18T06:57:09.998Z,96735.34
2023-02-18T07:07:26.554Z,96736.67
2023-02-18T07:18:25.165Z,96754.48
2023-02-18T07:29:01.596Z,96755.55
2023-02-18T07:39:29.286Z,96761.13
2023-02-18T07:50:43.229Z,96772.48
2023-02-18T08:01:07.731Z,96781.55
2023-02-18T08:12:15.740Z,96787.67
2023-02-18T08:23:31.638Z,96772.98
2023-02-18T08:34:56.525Z,96788.52
2023-02-18T08:45:59.967Z,96793.36
2023-02-18T08:56:39.941Z,96794.40
2023-02-18T09:07:35.491Z,96788.42
2023-02-18T09:18:44.092Z,96773.86
2023-02-18T09:29:55.282Z,96775.27
2023-02-18T09:41:05.084Z,96772.46
2023-02-18T09:52:09.660Z,96764.40
2023-02-18T10:03:22.919Z,96761.58
2023-02-18T10:14:24.538Z,96752.95
2023-02-18T10:25:49.339Z,96736.09
2023-02-18T10:37:02.495Z,96705.30
2023-02-18T10:47:33.184Z,96678.51
2023-02-18T10:58:29.334Z,96667.91
2023-02-18T11:08:47.039Z,96667.42
2023-02-18T11:19:05.537Z,96650.89
2023-02-18T11:29:24.918Z,96654.95
2023-02-18T11:40:05.614Z,96654.77
2023-02-18T11:50:38.472Z,96633.42
2023-02-18T12:01:56.693Z,96620.61
2023-02-18T12:12:38.951Z,96600.63
2023-02-18T12:23:30.903Z,96577.11
2023-02-18T12:34:20.306Z,96561.34
2023-02-18T12:44:45.648Z,96546.38
2023-02-18T13:06:23.542Z,96512.53
2023-02-18T13:17:37.335Z,96495.42
2023-02-18T13:42:23.523Z,96447.02
2023-02-18T13:54:09.442Z,96420.44
2023-02-18T14:05:28.345Z,96406.86
2023-02-18T14:16:44.732Z,96387.90
2023-02-18T14:28:11.459Z,96360.61
2023-02-18T14:39:31.844Z,96319.63
2023-02-18T14:50:57.412Z,96301.98
2023-02-18T15:02:17.252Z,96278.66
2023-02-18T15:13:43.064Z,96266.98
2023-02-18T15:24:51.085Z,96250.17
2023-02-18T15:35:59.006Z,96233.89
2023-02-18T15:47:14.491Z,96206.96
2023-02-18T15:58:42.971Z,96179.66
2023-02-18T16:09:50.620Z,96156.30
2023-02-18T16:21:12.625Z,96137.64
2023-02-18T16:32:21.367Z,96142.48
2023-02-18T16:43:39.997Z,96135.08
2023-02-18T16:54:52.313Z,96132.92
2023-02-18T17:06:18.323Z,96130.09
2023-02-18T17:17:44.159Z,96129.84
2023-02-18T17:28:41.440Z,96134.20
2023-02-18T17:39:58.786Z,96130.66
2023-02-18T17:50:27.933Z,96134.42
2023-02-18T18:01:26.472Z,96144.77
2023-02-18T18:12:33.456Z,96164.92
2023-02-18T18:23:34.733Z,96149.53
2023-02-18T18:34:52.603Z,96159.01
2023-02-18T18:46:19.181Z,96159.15
2023-02-18T18:57:47.328Z,96167.11
2023-02-18T19:09:10.911Z,96195.33
2023-02-18T19:20:28.824Z,96217.14
2023-02-18T19:31:25.183Z,96221.06
2023-02-18T19:42:24.445Z,96216.48
2023-02-18T19:53:48.743Z,96242.88
2023-02-18T20:05:09.565Z,96258.66
2023-02-18T20:16:31.599Z,96263.92
2023-02-18T20:28:01.828Z,96282.84
2023-02-18T20:39:16.665Z,96289.13
2023-02-18T20:50:35.597Z,96299.06
2023-02-18T21:01:59.329Z,96301.95
2023-02-18T21:13:16.209Z,96301.44
2023-02-18T21:24:34.074Z,96299.11
2023-02-18T21:35:46.096Z,96315.27
2023-02-18T21:47:13.397Z,96332.63
2023-02-18T21:58:32.756Z,96359.58
2023-02-18T22:09:50.805Z,96390.18
2023-02-18T22:21:16.532Z,96422.02
2023-02-18T22:32:41.403Z,96464.23
2023-02-18T22:44:06.611Z,96477.77
2023-02-18T22:55:24.348Z,96488.66
2023-02-18T23:06:49.227Z,96500.56
2023-02-18T23:18:07.410Z,96519.93
2023-02-18T23:29:06.590Z,96524.30
2023-02-18T23:40:22.700Z,96540.16
2023-02-18T23:51:34.965Z,96537.55
